createdAt,value
2017-11-19T01:37:19.901Z,87.30
2017-11-19T01:37:20.493Z,87.21
2017-11-19T01:37:21.074Z,87.21
2017-11-19T01:37:21.672Z,87.30
2017-11-19T01:37:22.273Z,86.83
2017-11-19T01:37:22.873Z,87.12
2017-11-19T01:37:23.472Z,86.93
2017-11-19T01:37:24.071Z,87.12
2017-11-19T01:38:18.576Z,87.30
2017-11-19T01:38:19.149Z,87.30
2017-11-19T01:38:19.748Z,87.30
2017-11-19T01:38:20.350Z,87.40
2017-11-19T01:38:20.949Z,87.40
2017-11-19T01:38:21.550Z,87.21
2017-11-19T01:38:22.149Z,87.68
2017-11-19T01:38:22.750Z,87.12
2017-11-19T01:39:17.253Z,87.87
2017-11-19T01:39:17.829Z,87.68
2017-11-19T01:39:18.450Z,87.77
2017-11-19T01:39:19.025Z,87.68
2017-11-19T01:39:19.631Z,87.68
2017-11-19T01:39:20.225Z,87.59
2017-11-19T01:39:20.825Z,87.77
2017-11-19T01:39:21.425Z,87.68
2017-11-19T01:40:14.905Z,88.44
2017-11-19T01:40:15.480Z,88.82
2017-11-19T01:40:16.079Z,88.63
2017-11-19T01:40:16.679Z,88.63
2017-11-19T01:40:17.279Z,88.73
2017-11-19T01:40:17.879Z,88.73
2017-11-19T01:40:18.478Z,88.35
2017-11-19T01:40:19.078Z,88.73
2017-11-19T01:41:12.557Z,88.44
2017-11-19T01:41:13.132Z,88.25
2017-11-19T01:41:13.752Z,88.35
2017-11-19T01:41:14.331Z,88.35
2017-11-19T01:41:14.931Z,88.25
2017-11-19T01:41:15.531Z,88.44
2017-11-19T01:41:16.137Z,88.44
2017-11-19T01:41:16.732Z,88.44
2017-11-19T01:42:10.217Z,88.63
2017-11-19T01:42:10.783Z,88.73
2017-11-19T01:42:11.384Z,89.01
2017-11-19T01:42:11.983Z,88.92
2017-11-19T01:42:12.582Z,89.01
2017-11-19T01:42:13.183Z,88.92
2017-11-19T01:42:13.782Z,88.92
2017-11-19T01:42:14.383Z,88.92
2017-11-19T01:43:07.968Z,88.63
2017-11-19T01:43:08.539Z,88.25
2017-11-19T01:43:09.138Z,88.25
2017-11-19T01:43:09.741Z,88.54
2017-11-19T01:43:10.337Z,88.44
2017-11-19T01:43:10.937Z,88.25
2017-11-19T01:43:11.537Z,88.25
2017-11-19T01:43:12.138Z,88.35
2017-11-19T01:44:06.648Z,87.97
2017-11-19T01:44:07.214Z,87.97
2017-11-19T01:44:07.821Z,88.16
2017-11-19T01:44:08.413Z,87.87
2017-11-19T01:44:09.013Z,87.68
2017-11-19T01:44:09.611Z,87.97
2017-11-19T01:44:10.216Z,87.97
2017-11-19T01:44:10.813Z,88.16
2017-11-19T01:45:05.313Z,88.35
2017-11-19T01:45:05.889Z,88.54
2017-11-19T01:45:06.488Z,88.44
2017-11-19T01:45:07.089Z,88.44
2017-11-19T01:45:07.695Z,88.25
2017-11-19T01:45:08.288Z,88.54
2017-11-19T01:45:08.890Z,88.63
2017-11-19T01:45:09.494Z,88.16
2017-11-19T01:46:02.978Z,87.97
2017-11-19T01:46:03.542Z,88.06
2017-11-19T01:46:04.142Z,87.97
2017-11-19T01:46:04.742Z,88.06
2017-11-19T01:46:05.341Z,87.97
2017-11-19T01:46:05.940Z,87.97
2017-11-19T01:46:06.548Z,88.06
2017-11-19T01:46:07.140Z,87.97
2017-11-19T01:47:00.619Z,87.59
2017-11-19T01:47:01.194Z,87.77
2017-11-19T01:47:01.794Z,87.40
2017-11-19T01:47:02.394Z,87.40
2017-11-19T01:47:02.993Z,87.68
2017-11-19T01:47:03.592Z,87.30
2017-11-19T01:47:04.192Z,87.87
2017-11-19T01:47:04.792Z,87.77
2017-11-19T01:47:58.270Z,87.97
2017-11-19T01:47:58.854Z,87.97
2017-11-19T01:47:59.447Z,87.87
2017-11-19T01:48:00.045Z,87.87
2017-11-19T01:48:00.645Z,87.87
2017-11-19T01:48:01.246Z,87.59
2017-11-19T01:48:01.849Z,88.16
2017-11-19T01:48:02.443Z,88.06
2017-11-19T01:48:56.946Z,88.06
2017-11-19T01:48:57.521Z,87.87
2017-11-19T01:48:58.119Z,87.97
2017-11-19T01:48:58.719Z,87.59
2017-11-19T01:48:59.322Z,88.16
2017-11-19T01:48:59.927Z,87.49
2017-11-19T01:49:00.519Z,87.49
2017-11-19T01:49:01.119Z,87.49
2017-11-19T01:49:55.621Z,87.59
2017-11-19T01:49:56.196Z,87.68
2017-11-19T01:49:56.797Z,87.68
2017-11-19T01:49:57.395Z,87.59
2017-11-19T01:49:57.996Z,87.87
2017-11-19T01:49:58.595Z,87.77
2017-11-19T01:49:59.196Z,87.87
2017-11-19T01:49:59.795Z,87.77
2017-11-19T01:50:54.297Z,87.59
2017-11-19T01:50:54.872Z,87.77
2017-11-19T01:50:55.478Z,87.59
2017-11-19T01:50:56.071Z,87.40
2017-11-19T01:50:56.671Z,87.40
2017-11-19T01:50:57.272Z,87.49
2017-11-19T01:50:57.872Z,87.49
2017-11-19T01:50:58.470Z,87.02
2017-11-19T01:51:52.973Z,87.77
2017-11-19T01:51:53.548Z,87.68
2017-11-19T01:51:54.150Z,87.87
2017-11-19T01:51:54.748Z,87.87
2017-11-19T01:51:55.347Z,87.77
2017-11-19T01:51:55.947Z,87.87
2017-11-19T01:51:56.546Z,87.77
2017-11-19T01:51:57.147Z,87.77
2017-11-19T01:52:50.625Z,88.44
2017-11-19T01:52:51.201Z,88.73
2017-11-19T01:52:51.799Z,88.63
2017-11-19T01:52:52.399Z,88.63
2017-11-19T01:52:53.000Z,88.54
2017-11-19T01:52:53.599Z,88.54
2017-11-19T01:52:54.199Z,88.54
2017-11-19T01:52:54.798Z,88.25
2017-11-19T01:54:00.975Z,88.92
2017-11-19T01:54:01.549Z,88.44
2017-11-19T01:54:02.148Z,88.44
2017-11-19T01:54:02.748Z,88.44
2017-11-19T01:54:03.349Z,88.25
2017-11-19T01:54:03.949Z,88.35
2017-11-19T01:54:04.548Z,88.25
2017-11-19T01:54:05.148Z,88.63
2017-11-19T01:54:58.625Z,88.63
2017-11-19T01:54:59.201Z,88.92
2017-11-19T01:54:59.801Z,88.63
2017-11-19T01:55:00.400Z,89.01
2017-11-19T01:55:01.001Z,89.01
2017-11-19T01:55:01.600Z,89.01
2017-11-19T01:55:02.208Z,88.92
2017-11-19T01:55:02.809Z,88.73
2017-11-19T01:55:56.281Z,88.63
2017-11-19T01:55:56.853Z,88.73
2017-11-19T01:55:57.454Z,88.82
2017-11-19T01:55:58.058Z,88.73
2017-11-19T01:55:58.653Z,88.82
2017-11-19T01:55:59.254Z,88.82
2017-11-19T01:55:59.852Z,88.82
2017-11-19T01:56:00.453Z,88.82
2017-11-19T01:56:53.938Z,88.73
2017-11-19T01:56:54.505Z,88.73
2017-11-19T01:56:55.105Z,88.44
2017-11-19T01:56:55.704Z,88.73
2017-11-19T01:56:56.310Z,88.82
2017-11-19T01:56:56.904Z,88.73
2017-11-19T01:56:57.511Z,88.63
2017-11-19T01:56:58.104Z,88.82
2017-11-19T01:57:51.585Z,89.39
2017-11-19T01:57:52.158Z,89.39
2017-11-19T01:57:52.759Z,89.39
2017-11-19T01:57:53.357Z,89.20
2017-11-19T01:57:53.958Z,89.29
2017-11-19T01:57:54.562Z,89.39
2017-11-19T01:57:55.157Z,89.29
2017-11-19T01:57:55.759Z,89.29
2017-11-19T01:58:50.259Z,89.11
2017-11-19T01:58:50.831Z,89.11
2017-11-19T01:58:51.429Z,88.44
2017-11-19T01:58:52.039Z,89.20
2017-11-19T01:58:52.634Z,88.73
2017-11-19T01:58:53.229Z,88.73
2017-11-19T01:58:53.830Z,88.54
2017-11-19T01:58:54.429Z,89.20
2017-11-19T01:59:47.908Z,88.92
2017-11-19T01:59:48.483Z,89.20
2017-11-19T01:59:49.082Z,89.20
2017-11-19T01:59:49.685Z,89.20
2017-11-19T01:59:50.288Z,88.92
2017-11-19T01:59:50.881Z,89.20
2017-11-19T01:59:51.481Z,89.11
2017-11-19T01:59:52.083Z,88.92
2017-11-19T02:00:45.560Z,88.92
2017-11-19T02:00:46.135Z,89.20
2017-11-19T02:00:46.737Z,89.20
2017-11-19T02:00:47.371Z,89.39
2017-11-19T02:00:47.945Z,89.20
2017-11-19T02:00:48.534Z,89.20
2017-11-19T02:00:49.132Z,89.11
2017-11-19T02:00:49.738Z,89.11
2017-11-19T02:01:43.211Z,88.73
2017-11-19T02:01:43.785Z,88.54
2017-11-19T02:01:44.403Z,88.54
2017-11-19T02:01:44.987Z,89.39
2017-11-19T02:01:45.586Z,88.63
2017-11-19T02:01:46.185Z,89.01
2017-11-19T02:01:46.797Z,88.73
2017-11-19T02:01:47.389Z,88.73
2017-11-19T02:02:40.863Z,89.01
2017-11-19T02:02:41.437Z,89.01
2017-11-19T02:02:42.039Z,89.01
2017-11-19T02:02:42.637Z,89.20
2017-11-19T02:02:43.236Z,89.11
2017-11-19T02:02:43.838Z,89.01
2017-11-19T02:02:44.438Z,89.20
2017-11-19T02:02:45.038Z,89.29
2017-11-19T02:03:38.523Z,88.82
2017-11-19T02:03:39.089Z,89.01
2017-11-19T02:03:39.692Z,89.11
2017-11-19T02:03:40.290Z,89.11
2017-11-19T02:03:40.890Z,89.11
2017-11-19T02:03:41.489Z,89.11
2017-11-19T02:03:42.089Z,89.01
2017-11-19T02:03:42.689Z,89.01
2017-11-19T02:04:37.193Z,89.01
2017-11-19T02:04:37.765Z,89.11
2017-11-19T02:04:38.366Z,89.11
2017-11-19T02:04:38.966Z,89.01
2017-11-19T02:04:39.564Z,89.39
2017-11-19T02:04:40.164Z,89.01
2017-11-19T02:04:40.765Z,89.39
2017-11-19T02:04:41.364Z,89.29
2017-11-19T02:05:35.866Z,89.01
2017-11-19T02:05:36.455Z,88.92
2017-11-19T02:05:37.042Z,88.92
2017-11-19T02:05:37.641Z,89.11
2017-11-19T02:05:38.240Z,89.20
2017-11-19T02:05:38.841Z,89.20
2017-11-19T02:05:39.441Z,89.20
2017-11-19T02:05:40.041Z,88.92
2017-11-19T02:06:33.519Z,89.29
2017-11-19T02:06:34.095Z,89.58
2017-11-19T02:06:34.693Z,89.77
2017-11-19T02:06:35.293Z,89.58
2017-11-19T02:06:35.891Z,89.29
2017-11-19T02:06:36.492Z,89.58
2017-11-19T02:06:37.092Z,89.77
2017-11-19T02:06:37.697Z,89.67
2017-11-19T02:07:32.197Z,89.77
2017-11-19T02:07:32.771Z,89.77
2017-11-19T02:07:33.373Z,89.96
2017-11-19T02:07:33.980Z,89.96
2017-11-19T02:07:34.568Z,89.86
2017-11-19T02:07:35.167Z,89.86
2017-11-19T02:07:35.766Z,89.86
2017-11-19T02:07:36.366Z,89.77
2017-11-19T02:08:29.846Z,89.77
2017-11-19T02:08:30.420Z,89.77
2017-11-19T02:08:31.019Z,89.96
2017-11-19T02:08:31.622Z,89.96
2017-11-19T02:08:32.219Z,89.96
2017-11-19T02:08:32.820Z,89.77
2017-11-19T02:08:33.422Z,89.67
2017-11-19T02:08:34.023Z,89.96
2017-11-19T02:09:28.521Z,89.96
2017-11-19T02:09:29.096Z,89.67
2017-11-19T02:09:29.695Z,89.77
2017-11-19T02:09:30.303Z,89.77
2017-11-19T02:09:30.895Z,89.77
2017-11-19T02:09:31.497Z,89.77
2017-11-19T02:09:32.098Z,89.77
2017-11-19T02:09:32.701Z,89.96
2017-11-19T02:10:26.171Z,90.62
2017-11-19T02:10:26.747Z,90.53
2017-11-19T02:10:27.351Z,90.53
2017-11-19T02:10:27.954Z,90.81
2017-11-19T02:10:28.548Z,90.72
2017-11-19T02:10:29.146Z,90.34
2017-11-19T02:10:29.747Z,90.81
2017-11-19T02:10:30.348Z,90.72
2017-11-19T02:11:24.848Z,90.43
2017-11-19T02:11:25.422Z,90.15
2017-11-19T02:11:26.023Z,89.96
2017-11-19T02:11:26.622Z,89.86
2017-11-19T02:11:27.223Z,90.81
2017-11-19T02:11:27.837Z,90.81
2017-11-19T02:11:28.421Z,89.96
2017-11-19T02:11:29.021Z,90.15
2017-11-19T02:12:23.525Z,90.72
2017-11-19T02:12:24.099Z,90.53
2017-11-19T02:12:24.698Z,90.53
2017-11-19T02:12:25.299Z,90.53
2017-11-19T02:12:25.897Z,90.34
2017-11-19T02:12:26.497Z,90.81
2017-11-19T02:12:27.097Z,90.81
2017-11-19T02:12:27.699Z,90.34
2017-11-19T02:13:21.175Z,91.00
2017-11-19T02:13:21.752Z,90.91
2017-11-19T02:13:22.350Z,91.09
2017-11-19T02:13:22.950Z,91.19
2017-11-19T02:13:23.549Z,91.09
2017-11-19T02:13:24.149Z,90.72
2017-11-19T02:13:24.750Z,90.91
2017-11-19T02:13:25.350Z,90.91
2017-11-19T02:14:19.853Z,91.09
2017-11-19T02:14:20.424Z,91.00
2017-11-19T02:14:21.025Z,90.91
2017-11-19T02:14:21.625Z,90.81
2017-11-19T02:14:22.224Z,90.81
2017-11-19T02:14:22.825Z,90.81
2017-11-19T02:14:23.426Z,91.19
2017-11-19T02:14:24.027Z,91.09
2017-11-19T02:15:17.503Z,91.38
2017-11-19T02:15:18.079Z,91.66
2017-11-19T02:15:18.679Z,91.66
2017-11-19T02:15:19.279Z,91.66
2017-11-19T02:15:19.876Z,91.66
2017-11-19T02:15:20.480Z,91.66
2017-11-19T02:15:21.077Z,91.57
2017-11-19T02:15:21.677Z,91.66
2017-11-19T02:16:15.154Z,91.09
2017-11-19T02:16:15.729Z,90.81
2017-11-19T02:16:16.329Z,91.09
2017-11-19T02:16:16.928Z,90.72
2017-11-19T02:16:17.528Z,90.53
2017-11-19T02:16:18.136Z,91.28
2017-11-19T02:16:18.729Z,91.28
2017-11-19T02:16:19.327Z,91.09
2017-11-19T02:17:12.805Z,91.00
2017-11-19T02:17:13.381Z,91.00
2017-11-19T02:17:13.980Z,91.00
2017-11-19T02:17:14.580Z,91.09
2017-11-19T02:17:15.180Z,91.09
2017-11-19T02:17:15.781Z,90.91
2017-11-19T02:17:16.379Z,91.00
2017-11-19T02:17:16.980Z,91.00
2017-11-19T02:18:10.457Z,91.00
2017-11-19T02:18:11.034Z,91.19
2017-11-19T02:18:11.633Z,90.81
2017-11-19T02:18:12.253Z,90.81
2017-11-19T02:18:12.832Z,91.00
2017-11-19T02:18:13.433Z,90.91
2017-11-19T02:18:14.035Z,91.09
2017-11-19T02:18:14.634Z,91.00
2017-11-19T02:19:09.135Z,91.19
2017-11-19T02:19:09.708Z,91.09
2017-11-19T02:19:10.308Z,91.09
2017-11-19T02:19:10.907Z,91.00
2017-11-19T02:19:11.508Z,91.00
2017-11-19T02:19:12.109Z,91.09
2017-11-19T02:19:12.708Z,91.00
2017-11-19T02:19:13.306Z,91.19
2017-11-19T02:20:06.785Z,91.09
2017-11-19T02:20:07.361Z,91.09
2017-11-19T02:20:07.966Z,90.91
2017-11-19T02:20:08.560Z,91.28
2017-11-19T02:20:09.160Z,91.28
2017-11-19T02:20:09.762Z,91.38
2017-11-19T02:20:10.364Z,91.28
2017-11-19T02:20:10.960Z,91.09
2017-11-19T02:21:05.461Z,91.28
2017-11-19T02:21:06.035Z,91.19
2017-11-19T02:21:06.634Z,91.00
2017-11-19T02:21:07.235Z,91.09
2017-11-19T02:21:07.843Z,91.19
2017-11-19T02:21:08.434Z,91.28
2017-11-19T02:21:09.034Z,90.62
2017-11-19T02:21:09.635Z,91.19
2017-11-19T02:22:03.112Z,90.53
2017-11-19T02:22:03.693Z,90.53
2017-11-19T02:22:04.287Z,90.53
2017-11-19T02:22:04.888Z,90.53
2017-11-19T02:22:05.486Z,90.43
2017-11-19T02:22:06.090Z,90.62
2017-11-19T02:22:06.687Z,90.43
2017-11-19T02:22:07.286Z,90.53
2017-11-19T02:23:01.788Z,90.53
2017-11-19T02:23:02.362Z,89.86
2017-11-19T02:23:02.970Z,89.86
2017-11-19T02:23:03.562Z,90.91
2017-11-19T02:23:04.160Z,89.86
2017-11-19T02:23:04.761Z,89.96
2017-11-19T02:23:05.364Z,90.05
2017-11-19T02:23:05.960Z,90.15
2017-11-19T02:24:00.462Z,90.34
2017-11-19T02:24:01.037Z,90.81
2017-11-19T02:24:01.638Z,90.53
2017-11-19T02:24:02.237Z,90.34
2017-11-19T02:24:02.839Z,90.53
2017-11-19T02:24:03.438Z,90.24
2017-11-19T02:24:04.038Z,90.53
2017-11-19T02:24:04.638Z,90.53
2017-11-19T02:24:58.118Z,91.28
2017-11-19T02:24:58.693Z,91.19
2017-11-19T02:24:59.296Z,91.19
2017-11-19T02:24:59.890Z,91.09
2017-11-19T02:25:00.498Z,90.53
2017-11-19T02:25:01.089Z,91.28
2017-11-19T02:25:01.690Z,90.91
2017-11-19T02:25:02.289Z,91.09
2017-11-19T02:25:56.789Z,91.19
2017-11-19T02:25:57.367Z,91.00
2017-11-19T02:25:57.969Z,90.91
2017-11-19T02:25:58.564Z,91.19
2017-11-19T02:25:59.162Z,91.00
2017-11-19T02:25:59.763Z,91.19
2017-11-19T02:26:00.362Z,91.38
2017-11-19T02:26:00.964Z,90.91
2017-11-19T02:26:55.466Z,91.00
2017-11-19T02:26:56.041Z,90.91
2017-11-19T02:26:56.640Z,90.91
2017-11-19T02:26:57.240Z,90.72
2017-11-19T02:26:57.841Z,91.00
2017-11-19T02:26:58.440Z,91.19
2017-11-19T02:26:59.040Z,90.91
2017-11-19T02:26:59.640Z,91.00
2017-11-19T02:27:54.141Z,91.09
2017-11-19T02:27:54.715Z,90.72
2017-11-19T02:27:55.316Z,91.00
2017-11-19T02:27:55.915Z,90.72
2017-11-19T02:27:56.516Z,90.62
2017-11-19T02:27:57.115Z,90.53
2017-11-19T02:27:57.719Z,90.53
2017-11-19T02:27:58.315Z,90.62
2017-11-19T02:28:52.818Z,90.43
2017-11-19T02:28:53.393Z,90.62
2017-11-19T02:28:53.991Z,90.53
2017-11-19T02:28:54.591Z,90.53
2017-11-19T02:28:55.192Z,90.62
2017-11-19T02:28:55.793Z,90.53
2017-11-19T02:28:56.391Z,90.53
2017-11-19T02:28:56.991Z,90.62
2017-11-19T02:29:50.470Z,91.09
2017-11-19T02:29:51.045Z,91.19
2017-11-19T02:29:51.644Z,91.28
2017-11-19T02:29:52.250Z,91.09
2017-11-19T02:29:52.844Z,91.09
2017-11-19T02:29:53.443Z,91.19
2017-11-19T02:29:54.046Z,90.53
2017-11-19T02:29:54.644Z,91.28
2017-11-19T02:30:48.132Z,90.81
2017-11-19T02:30:48.698Z,91.09
2017-11-19T02:30:49.295Z,91.19
2017-11-19T02:30:49.895Z,91.38
2017-11-19T02:30:50.496Z,90.95
2017-11-19T02:30:51.094Z,91.28
2017-11-19T02:30:51.698Z,91.47
2017-11-19T02:30:52.298Z,91.38
2017-11-19T02:31:46.797Z,91.90
2017-11-19T02:31:47.372Z,91.80
2017-11-19T02:31:47.970Z,91.80
2017-11-19T02:31:48.569Z,91.66
2017-11-19T02:31:49.170Z,91.57
2017-11-19T02:31:49.770Z,91.57
2017-11-19T02:31:50.371Z,91.80
2017-11-19T02:31:50.970Z,91.80
2017-11-19T02:32:44.447Z,91.52
2017-11-19T02:32:45.023Z,91.71
2017-11-19T02:32:45.622Z,91.71
2017-11-19T02:32:46.234Z,91.71
2017-11-19T02:32:46.825Z,91.99
2017-11-19T02:32:47.422Z,91.99
2017-11-19T02:32:48.029Z,91.80
2017-11-19T02:32:48.624Z,91.80
2017-11-19T02:33:43.134Z,91.99
2017-11-19T02:33:43.699Z,91.80
2017-11-19T02:33:44.299Z,91.80
2017-11-19T02:33:44.900Z,91.99
2017-11-19T02:33:45.496Z,91.61
2017-11-19T02:33:46.099Z,91.80
2017-11-19T02:33:46.697Z,91.71
2017-11-19T02:33:47.299Z,91.52
2017-11-19T02:52:25.843Z,87.63
2017-11-19T02:52:26.416Z,87.82
2017-11-19T02:52:27.015Z,87.73
2017-11-19T02:52:27.616Z,87.54
2017-11-19T02:52:28.214Z,87.73
2017-11-19T02:52:28.814Z,87.54
2017-11-19T02:52:29.414Z,87.63
2017-11-19T02:52:30.019Z,87.92
2017-11-19T02:53:24.524Z,87.63
2017-11-19T02:53:25.095Z,87.63
2017-11-19T02:53:25.692Z,87.73
2017-11-19T02:53:26.294Z,87.63
2017-11-19T02:53:26.891Z,87.63
2017-11-19T02:53:27.492Z,87.82
2017-11-19T02:53:28.094Z,87.92
2017-11-19T02:53:28.691Z,87.92
2017-11-19T02:54:30.671Z,87.63
2017-11-19T02:54:31.246Z,87.63
2017-11-19T02:54:31.844Z,87.63
2017-11-19T02:54:32.445Z,88.20
2017-11-19T02:54:33.043Z,87.92
2017-11-19T02:54:33.643Z,87.73
2017-11-19T02:54:34.242Z,87.82
2017-11-19T02:54:34.858Z,88.10
2017-11-19T02:54:35.442Z,87.82
2017-11-19T02:54:36.041Z,87.82
2017-11-19T02:54:36.643Z,87.82
2017-11-19T02:54:37.243Z,87.82
2017-11-19T02:55:30.788Z,88.10
2017-11-19T02:55:31.355Z,87.82
2017-11-19T02:55:31.953Z,87.92
2017-11-19T02:55:32.554Z,87.82
2017-11-19T02:55:33.154Z,87.82
2017-11-19T02:55:33.754Z,87.92
2017-11-19T02:55:34.353Z,88.20
2017-11-19T02:55:34.952Z,88.10
2017-11-19T02:56:28.430Z,87.92
2017-11-19T02:56:29.005Z,88.10
2017-11-19T02:56:29.604Z,87.82
2017-11-19T02:56:30.205Z,87.82
2017-11-19T02:56:30.805Z,88.01
2017-11-19T02:56:31.405Z,87.73
2017-11-19T02:56:32.004Z,88.01
2017-11-19T02:56:32.604Z,88.10
2017-11-19T02:57:26.091Z,88.48
2017-11-19T02:57:26.656Z,88.39
2017-11-19T02:57:27.257Z,88.48
2017-11-19T02:57:27.858Z,88.10
2017-11-19T02:57:28.457Z,88.39
2017-11-19T02:57:29.057Z,88.29
2017-11-19T02:57:29.657Z,88.29
2017-11-19T02:57:30.257Z,88.29
2017-11-19T02:58:23.741Z,87.54
2017-11-19T02:58:24.310Z,87.92
2017-11-19T02:58:24.913Z,87.92
2017-11-19T02:58:25.509Z,87.92
2017-11-19T02:58:26.108Z,88.01
2017-11-19T02:58:26.709Z,87.82
2017-11-19T02:58:27.312Z,87.73
2017-11-19T02:58:27.929Z,87.92
2017-11-19T02:59:21.387Z,87.35
2017-11-19T02:59:21.962Z,87.35
2017-11-19T02:59:22.561Z,87.35
2017-11-19T02:59:23.161Z,87.16
2017-11-19T02:59:23.762Z,87.30
2017-11-19T02:59:24.363Z,87.25
2017-11-19T02:59:24.961Z,87.35
2017-11-19T02:59:25.564Z,87.25
2017-11-19T03:00:20.062Z,86.83
2017-11-19T03:00:20.637Z,86.83
2017-11-19T03:00:21.237Z,86.74
2017-11-19T03:00:21.838Z,86.83
2017-11-19T03:00:22.437Z,87.02
2017-11-19T03:00:23.039Z,86.93
2017-11-19T03:00:23.636Z,86.93
2017-11-19T03:00:24.236Z,87.02
2017-11-19T03:01:18.738Z,87.02
2017-11-19T03:01:19.313Z,87.12
2017-11-19T03:01:19.921Z,86.78
2017-11-19T03:01:20.512Z,87.21
2017-11-19T03:01:21.114Z,87.21
2017-11-19T03:01:21.713Z,86.83
2017-11-19T03:01:22.320Z,86.83
2017-11-19T03:01:22.912Z,87.12
2017-11-19T03:02:17.413Z,87.21
2017-11-19T03:02:17.987Z,87.02
2017-11-19T03:02:18.588Z,87.12
2017-11-19T03:02:19.195Z,87.02
2017-11-19T03:02:19.788Z,87.12
2017-11-19T03:02:20.388Z,86.93
2017-11-19T03:02:20.988Z,87.02
2017-11-19T03:02:21.594Z,87.02
2017-11-19T03:03:16.090Z,86.16
2017-11-19T03:03:16.664Z,85.88
2017-11-19T03:03:17.265Z,86.16
2017-11-19T03:03:17.862Z,86.07
2017-11-19T03:03:18.463Z,85.97
2017-11-19T03:03:19.079Z,85.97
2017-11-19T03:03:19.662Z,86.07
2017-11-19T03:03:20.263Z,86.07
2017-11-19T03:04:14.767Z,85.97
2017-11-19T03:04:15.341Z,85.97
2017-11-19T03:04:15.939Z,85.97
2017-11-19T03:04:16.539Z,86.26
2017-11-19T03:04:17.146Z,85.97
2017-11-19T03:04:17.739Z,85.97
2017-11-19T03:04:18.338Z,86.07
2017-11-19T03:04:18.939Z,86.07
2017-11-19T03:05:13.440Z,86.07
2017-11-19T03:05:14.015Z,85.97
2017-11-19T03:05:14.616Z,85.22
2017-11-19T03:05:15.215Z,86.07
2017-11-19T03:05:15.814Z,85.41
2017-11-19T03:05:16.418Z,86.26
2017-11-19T03:05:17.015Z,85.69
2017-11-19T03:05:17.617Z,85.78
2017-11-19T03:06:12.118Z,86.16
2017-11-19T03:06:12.692Z,86.07
2017-11-19T03:06:13.299Z,86.07
2017-11-19T03:06:13.892Z,85.13
2017-11-19T03:06:14.502Z,85.60
2017-11-19T03:06:15.092Z,85.22
2017-11-19T03:06:15.696Z,86.07
2017-11-19T03:06:16.292Z,86.07
2017-11-19T03:07:09.769Z,86.07
2017-11-19T03:07:10.344Z,86.07
2017-11-19T03:07:10.945Z,85.97
2017-11-19T03:07:11.543Z,86.16
2017-11-19T03:07:12.144Z,85.60
2017-11-19T03:07:12.744Z,85.97
2017-11-19T03:07:13.342Z,86.35
2017-11-19T03:07:13.944Z,86.16
2017-11-19T03:08:07.421Z,86.07
2017-11-19T03:08:07.997Z,86.16
2017-11-19T03:08:08.595Z,85.88
2017-11-19T03:08:09.196Z,86.16
2017-11-19T03:08:09.800Z,86.26
2017-11-19T03:08:10.402Z,85.78
2017-11-19T03:08:11.020Z,86.16
2017-11-19T03:08:11.604Z,86.16
2017-11-19T03:09:05.074Z,85.69
2017-11-19T03:09:05.650Z,85.69
2017-11-19T03:09:06.246Z,85.88
2017-11-19T03:09:06.848Z,85.69
2017-11-19T03:09:07.447Z,85.60
2017-11-19T03:09:08.046Z,85.69
2017-11-19T03:09:08.646Z,85.69
2017-11-19T03:09:09.251Z,85.88
2017-11-19T03:10:02.725Z,86.07
2017-11-19T03:10:03.301Z,86.35
2017-11-19T03:10:03.898Z,86.26
2017-11-19T03:10:04.498Z,85.60
2017-11-19T03:10:05.099Z,86.35
2017-11-19T03:10:05.698Z,86.26
2017-11-19T03:10:06.299Z,86.35
2017-11-19T03:10:06.899Z,85.78
2017-11-19T03:11:00.378Z,85.55
2017-11-19T03:11:00.957Z,86.07
2017-11-19T03:11:01.551Z,86.26
2017-11-19T03:11:02.151Z,85.97
2017-11-19T03:11:02.750Z,86.26
2017-11-19T03:11:03.351Z,85.88
2017-11-19T03:11:03.950Z,85.60
2017-11-19T03:11:04.549Z,86.26
2017-11-19T03:11:59.052Z,86.07
2017-11-19T03:11:59.625Z,86.16
2017-11-19T03:12:00.225Z,85.97
2017-11-19T03:12:00.825Z,85.60
2017-11-19T03:12:01.425Z,85.55
2017-11-19T03:12:02.024Z,85.88
2017-11-19T03:12:02.625Z,85.69
2017-11-19T03:12:03.226Z,85.78
2017-11-19T03:12:56.705Z,86.30
2017-11-19T03:12:57.279Z,86.16
2017-11-19T03:12:57.880Z,86.30
2017-11-19T03:12:58.479Z,86.49
2017-11-19T03:12:59.078Z,86.49
2017-11-19T03:12:59.678Z,86.45
2017-11-19T03:13:00.278Z,86.49
2017-11-19T03:13:55.394Z,85.64
2017-11-19T03:13:55.953Z,85.93
2017-11-19T03:13:56.553Z,85.45
2017-11-19T03:13:57.151Z,86.21
2017-11-19T03:13:57.765Z,85.74
2017-11-19T03:13:58.351Z,85.93
2017-11-19T03:13:58.951Z,85.93
2017-11-19T03:13:59.549Z,85.93
2017-11-19T03:14:53.028Z,86.59
2017-11-19T03:14:53.605Z,86.68
2017-11-19T03:14:54.208Z,86.87
2017-11-19T03:14:54.803Z,87.25
2017-11-19T03:14:55.403Z,86.97
2017-11-19T03:14:56.002Z,87.16
2017-11-19T03:14:56.604Z,86.97
2017-11-19T03:14:57.204Z,87.06
2017-11-19T03:15:51.709Z,86.78
2017-11-19T03:15:52.281Z,86.68
2017-11-19T03:15:52.882Z,86.68
2017-11-19T03:15:53.495Z,86.78
2017-11-19T03:15:54.079Z,86.68
2017-11-19T03:15:54.679Z,86.68
2017-11-19T03:15:55.280Z,86.68
2017-11-19T03:15:55.880Z,86.87
2017-11-19T03:16:50.382Z,87.73
2017-11-19T03:16:50.955Z,88.01
2017-11-19T03:16:51.554Z,88.20
2017-11-19T03:16:52.155Z,87.63
2017-11-19T03:16:52.763Z,87.63
2017-11-19T03:16:53.355Z,87.45
2017-11-19T03:16:53.963Z,87.73
2017-11-19T03:16:54.556Z,87.73
2017-11-19T03:17:48.036Z,87.06
2017-11-19T03:17:48.609Z,87.06
2017-11-19T03:17:49.209Z,86.97
2017-11-19T03:17:49.810Z,86.68
2017-11-19T03:17:50.412Z,87.06
2017-11-19T03:17:51.008Z,87.16
2017-11-19T03:17:51.608Z,86.87
2017-11-19T03:17:52.211Z,87.06
2017-11-19T03:18:45.684Z,86.30
2017-11-19T03:18:46.260Z,86.40
2017-11-19T03:18:46.860Z,87.06
2017-11-19T03:18:47.460Z,87.06
2017-11-19T03:18:48.060Z,87.16
2017-11-19T03:18:48.660Z,86.87
2017-11-19T03:18:49.259Z,86.68
2017-11-19T03:18:49.861Z,86.68
2017-11-19T03:19:44.362Z,86.49
2017-11-19T03:19:44.936Z,86.59
2017-11-19T03:19:45.536Z,86.40
2017-11-19T03:19:46.136Z,86.40
2017-11-19T03:19:46.734Z,86.49
2017-11-19T03:19:47.334Z,86.21
2017-11-19T03:19:47.934Z,86.30
2017-11-19T03:19:48.536Z,86.30
2017-11-19T03:20:43.034Z,85.83
2017-11-19T03:20:43.610Z,85.74
2017-11-19T03:20:44.210Z,85.74
2017-11-19T03:20:44.813Z,85.83
2017-11-19T03:20:45.409Z,85.74
2017-11-19T03:20:46.010Z,85.83
2017-11-19T03:20:46.610Z,85.93
2017-11-19T03:20:47.210Z,85.64
2017-11-19T03:21:40.687Z,85.83
2017-11-19T03:21:41.264Z,85.83
2017-11-19T03:21:41.866Z,86.21
2017-11-19T03:21:42.463Z,86.02
2017-11-19T03:21:43.063Z,86.02
2017-11-19T03:21:43.663Z,86.21
2017-11-19T03:21:44.263Z,86.02
2017-11-19T03:21:44.864Z,85.55
2017-11-19T03:22:39.364Z,85.36
2017-11-19T03:22:39.938Z,85.36
2017-11-19T03:22:40.546Z,85.26
2017-11-19T03:22:41.140Z,85.07
2017-11-19T03:22:41.738Z,85.07
2017-11-19T03:22:42.337Z,84.88
2017-11-19T03:22:42.937Z,84.88
2017-11-19T03:22:43.539Z,84.98
2017-11-19T03:23:37.020Z,85.07
2017-11-19T03:23:37.589Z,85.07
2017-11-19T03:23:38.190Z,84.41
2017-11-19T03:23:38.790Z,84.50
2017-11-19T03:23:39.389Z,84.41
2017-11-19T03:23:39.991Z,84.50
2017-11-19T03:23:40.590Z,84.69
2017-11-19T03:23:41.190Z,84.31
2017-11-19T03:24:35.691Z,83.94
2017-11-19T03:24:36.265Z,84.12
2017-11-19T03:24:36.866Z,84.12
2017-11-19T03:24:37.466Z,83.94
2017-11-19T03:24:38.064Z,83.94
2017-11-19T03:24:38.664Z,83.84
2017-11-19T03:24:39.265Z,83.84
2017-11-19T03:24:39.867Z,83.74
2017-11-19T03:25:34.366Z,83.94
2017-11-19T03:25:34.941Z,83.84
2017-11-19T03:25:35.541Z,83.55
2017-11-19T03:25:36.139Z,83.65
2017-11-19T03:25:36.741Z,83.94
2017-11-19T03:25:37.339Z,83.94
2017-11-19T03:25:37.940Z,83.94
2017-11-19T03:25:38.541Z,84.03
2017-11-19T03:26:33.045Z,83.84
2017-11-19T03:26:33.617Z,84.03
2017-11-19T03:26:34.215Z,83.94
2017-11-19T03:26:34.822Z,83.84
2017-11-19T03:26:35.417Z,83.84
2017-11-19T03:26:36.016Z,84.03
2017-11-19T03:26:36.616Z,83.94
2017-11-19T03:26:37.215Z,83.55
2017-11-19T03:27:31.718Z,82.98
2017-11-19T03:27:32.296Z,83.08
2017-11-19T03:27:32.897Z,83.08
2017-11-19T03:27:33.491Z,83.08
2017-11-19T03:27:34.091Z,82.98
2017-11-19T03:27:34.693Z,83.08
2017-11-19T03:27:35.290Z,82.98
2017-11-19T03:27:35.895Z,82.98
2017-11-19T03:28:30.394Z,83.46
2017-11-19T03:28:30.969Z,83.27